Time;durP1;ratioP1;P1;durP2;ratioP2;P2;SDS_P1;SDS_P2;PMS_P1;PMS_P2;Temp;Humidity;BMP_temperature;BMP_pressure;BME280_temperature;BME280_humidity;BME280_pressure;Samples;Min_cycle;Max_cycle;Signal;HPM_P1;HPM_P2
2022/06/21 00:00:14;;;;;;;8.82;4.10;;;18.90;99.90;;;;;;5071636;28;20028;-55
2022/06/21 00:02:40;;;;;;;12.07;4.65;;;18.90;99.90;;;;;;5073682;28;20016;-55
2022/06/21 00:05:34;;;;;;;5.28;4.50;;;18.90;99.90;;;;;;5071661;28;20028;-54
2022/06/21 00:08:01;;;;;;;10.20;5.05;;;18.80;99.90;;;;;;5072024;28;20025;-54
2022/06/21 00:10:27;;;;;;;12.82;5.40;;;18.70;99.90;;;;;;5071271;28;20078;-56
2022/06/21 00:12:53;;;;;;;8.38;4.65;;;18.70;99.90;;;;;;5072221;28;20078;-54
2022/06/21 00:15:19;;;;;;;10.00;4.82;;;18.70;99.90;;;;;;5071219;28;20028;-54
2022/06/21 00:17:48;;;;;;;10.25;4.78;;;18.80;99.90;;;;;;5078415;28;20032;-55
2022/06/21 00:20:20;;;;;;;9.07;4.55;;;18.70;99.90;;;;;;5082069;28;20410;-55
2022/06/21 00:22:48;;;;;;;9.43;5.10;;;18.70;99.90;;;;;;5083952;28;20123;-54
2022/06/21 00:25:23;;;;;;;7.35;4.90;;;18.70;99.90;;;;;;5091077;28;20038;-53
2022/06/21 00:27:50;;;;;;;7.55;5.13;;;18.70;99.90;;;;;;5089643;28;20024;-54
2022/06/21 00:30:16;;;;;;;9.38;5.28;;;18.80;99.90;;;;;;5090482;28;20043;-54
2022/06/21 00:32:43;;;;;;;7.43;4.63;;;18.90;99.90;;;;;;5085277;28;20033;-55
2022/06/21 00:35:16;;;;;;;11.63;4.80;;;18.80;99.90;;;;;;5103713;28;20032;-55
2022/06/21 00:37:42;;;;;;;5.82;4.30;;;18.80;99.90;;;;;;5103613;28;20410;-53
2022/06/21 00:40:32;;;;;;;6.05;4.65;;;18.80;99.90;;;;;;5071442;28;20040;-55
2022/06/21 00:43:10;;;;;;;9.85;5.50;;;18.70;99.90;;;;;;5076332;28;20020;-54
2022/06/21 00:45:43;;;;;;;15.40;4.78;;;18.80;99.90;;;;;;5091711;28;20024;-53
2022/06/21 00:48:22;;;;;;;10.27;5.43;;;18.80;99.90;;;;;;5089399;28;20101;-52
2022/06/21 00:50:56;;;;;;;6.22;4.47;;;18.80;99.90;;;;;;5090946;28;20024;-53
2022/06/21 00:53:36;;;;;;;10.57;5.65;;;18.70;99.90;;;;;;5081786;28;20033;-52
2022/06/21 00:56:33;;;;;;;6.75;4.63;;;18.70;99.90;;;;;;5090046;28;20443;-54
2022/06/21 00:59:16;;;;;;;9.10;4.45;;;18.70;99.90;;;;;;5074405;28;20032;-54
2022/06/21 01:01:41;;;;;;;12.90;5.28;;;18.60;99.90;;;;;;5079186;28;20028;-54
2022/06/21 01:04:22;;;;;;;7.70;3.83;;;18.60;99.90;;;;;;5081060;28;20032;-55
2022/06/21 01:06:53;;;;;;;5.45;3.97;;;18.50;99.90;;;;;;5088689;28;20031;-54
2022/06/21 01:09:34;;;;;;;4.95;3.40;;;18.30;99.90;;;;;;5083966;28;20511;-52
2022/06/21 01:12:07;;;;;;;6.20;3.38;;;18.30;99.90;;;;;;5071096;28;20078;-55
2022/06/21 01:14:35;;;;;;;5.03;3.22;;;18.20;99.90;;;;;;5071214;28;20078;-54
2022/06/21 01:17:02;;;;;;;7.50;3.85;;;18.20;99.90;;;;;;5070915;28;20028;-53
2022/06/21 01:19:51;;;;;;;4.00;3.58;;;18.20;99.90;;;;;;5070026;28;20403;-54
2022/06/21 01:22:41;;;;;;;4.25;3.58;;;18.10;99.90;;;;;;5082066;28;20119;-54
2022/06/21 01:25:19;;;;;;;5.63;3.20;;;18.00;99.90;;;;;;5089155;28;20565;-55
2022/06/21 01:27:44;;;;;;;4.15;2.80;;;18.00;99.90;;;;;;5090617;28;20460;-53
2022/06/21 01:30:11;;;;;;;9.18;3.55;;;17.90;99.90;;;;;;5091173;28;20157;-54
2022/06/21 01:32:37;;;;;;;7.22;3.75;;;17.90;99.90;;;;;;5091298;28;20088;-54
2022/06/21 01:35:13;;;;;;;6.60;3.53;;;17.80;99.90;;;;;;5091039;28;20035;-53
2022/06/21 01:37:40;;;;;;;4.25;3.85;;;17.80;99.90;;;;;;5090730;28;20391;-55
2022/06/21 01:40:12;;;;;;;3.63;3.15;;;17.80;99.90;;;;;;5089772;28;20097;-56
2022/06/21 01:42:50;;;;;;;4.43;2.78;;;17.60;99.90;;;;;;5091440;28;20024;-55
2022/06/21 01:45:21;;;;;;;7.63;3.55;;;17.60;99.90;;;;;;5091105;28;20044;-54
2022/06/21 01:47:51;;;;;;;7.60;3.22;;;17.50;99.90;;;;;;5091149;28;20348;-55
2022/06/21 01:50:19;;;;;;;6.85;3.13;;;17.60;99.90;;;;;;5090877;28;20440;-56
2022/06/21 01:52:49;;;;;;;4.43;3.10;;;17.60;99.90;;;;;;5090420;28;20047;-55
2022/06/21 01:55:41;;;;;;;6.60;2.80;;;17.60;99.90;;;;;;5089777;28;20027;-55
2022/06/21 01:58:12;;;;;;;4.45;3.30;;;17.60;99.90;;;;;;5086947;28;20012;-54
2022/06/21 02:00:44;;;;;;;3.67;3.13;;;17.40;99.90;;;;;;5073680;28;20012;-55
2022/06/21 02:03:15;;;;;;;5.38;2.88;;;17.40;99.90;;;;;;5073548;28;20043;-55
2022/06/21 02:05:46;;;;;;;10.15;3.10;;;17.50;99.90;;;;;;5074781;28;20028;-54
2022/06/21 02:08:15;;;;;;;5.53;3.47;;;17.40;99.90;;;;;;5093629;28;20032;-54
2022/06/21 02:11:01;;;;;;;3.13;2.78;;;17.30;99.90;;;;;;5092034;28;20030;-55
2022/06/21 02:13:36;;;;;;;3.97;2.55;;;17.20;99.90;;;;;;5088615;28;20077;-54
2022/06/21 02:16:08;;;;;;;7.00;2.78;;;17.10;99.90;;;;;;5092463;28;20031;-52
2022/06/21 02:18:39;;;;;;;9.73;3.72;;;17.10;99.90;;;;;;5076565;28;20216;-53
2022/06/21 02:21:18;;;;;;;8.25;2.95;;;17.10;99.90;;;;;;5072889;28;20055;-55
2022/06/21 02:23:51;;;;;;;10.25;3.10;;;17.10;99.90;;;;;;5073370;28;20031;-55
2022/06/21 02:26:17;;;;;;;4.28;2.05;;;17.00;99.90;;;;;;5071462;28;20556;-54
2022/06/21 02:28:43;;;;;;;4.07;2.25;;;16.90;99.90;;;;;;5074072;28;20071;-55
2022/06/21 02:31:09;;;;;;;6.38;3.10;;;16.80;99.90;;;;;;5072695;28;20103;-54
2022/06/21 02:33:37;;;;;;;10.57;2.47;;;16.80;99.90;;;;;;5086454;28;20425;-55
2022/06/21 02:36:24;;;;;;;4.05;2.28;;;16.80;99.90;;;;;;5089981;28;20027;-56
2022/06/21 02:38:55;;;;;;;2.88;2.05;;;16.80;99.90;;;;;;5073061;28;20387;-55
2022/06/21 02:41:32;;;;;;;3.08;1.98;;;16.70;99.90;;;;;;5072630;28;20516;-55
2022/06/21 02:44:19;;;;;;;4.80;2.25;;;16.70;99.90;;;;;;5086301;28;20596;-55
2022/06/21 02:46:48;;;;;;;2.80;2.10;;;16.60;99.90;;;;;;5092943;28;20082;-56
2022/06/21 02:49:23;;;;;;;3.03;2.33;;;16.70;99.90;;;;;;5091090;28;20423;-54
2022/06/21 02:52:18;;;;;;;4.57;1.88;;;16.70;99.90;;;;;;5093041;28;20024;-55
2022/06/21 02:55:22;;;;;;;3.58;2.65;;;16.70;99.90;;;;;;5085706;28;20044;-54
2022/06/21 02:57:57;;;;;;;5.53;2.33;;;16.70;99.90;;;;;;5092650;28;20020;-53
2022/06/21 03:00:24;;;;;;;6.20;2.47;;;16.60;99.90;;;;;;5092721;28;20035;-55
2022/06/21 03:02:52;;;;;;;4.47;1.85;;;16.50;99.90;;;;;;5092223;28;20035;-55
2022/06/21 03:05:21;;;;;;;4.15;1.98;;;16.60;99.90;;;;;;5092277;28;20062;-55
2022/06/21 03:07:54;;;;;;;4.85;1.77;;;16.50;99.90;;;;;;5074424;28;20031;-55
2022/06/21 03:10:30;;;;;;;4.10;1.70;;;16.50;99.90;;;;;;5082274;28;20024;-56
2022/06/21 03:13:09;;;;;;;6.75;2.53;;;16.50;99.90;;;;;;5092218;28;20181;-54
2022/06/21 03:15:36;;;;;;;3.78;1.90;;;16.60;99.90;;;;;;5090616;28;20016;-56
2022/06/21 03:18:09;;;;;;;4.18;2.13;;;16.60;99.90;;;;;;5070981;28;20384;-55
2022/06/21 03:20:35;;;;;;;3.30;1.60;;;16.50;99.90;;;;;;5083284;28;20119;-55
2022/06/21 03:23:03;;;;;;;6.32;1.70;;;16.70;99.90;;;;;;5091022;28;20266;-55
2022/06/21 03:25:34;;;;;;;5.00;1.80;;;16.70;99.90;;;;;;5091842;28;20056;-55
2022/06/21 03:28:01;;;;;;;2.38;1.85;;;16.80;99.90;;;;;;5092140;28;20027;-55
2022/06/21 03:30:31;;;;;;;9.40;1.95;;;16.80;99.90;;;;;;5090079;28;20027;-53
2022/06/21 03:32:58;;;;;;;3.55;1.40;;;16.70;99.90;;;;;;5092009;28;20451;-55
2022/06/21 03:35:26;;;;;;;4.72;1.67;;;16.70;99.90;;;;;;5090284;28;20124;-54
2022/06/21 03:37:52;;;;;;;1.85;1.55;;;16.70;99.90;;;;;;5073262;28;20031;-54
2022/06/21 03:43:37;;;;;;;2.08;1.52;;;16.70;99.90;;;;;;5088366;28;20548;-52
2022/06/21 03:46:08;;;;;;;8.35;1.67;;;16.70;99.90;;;;;;5089308;28;20051;-54
2022/06/21 03:48:59;;;;;;;1.98;1.55;;;16.60;99.90;;;;;;5085213;28;20029;-54
2022/06/21 03:51:38;;;;;;;1.58;1.48;;;16.70;99.90;;;;;;5071436;28;20483;-56
2022/06/21 03:54:05;;;;;;;1.95;1.15;;;16.70;99.90;;;;;;5089730;28;20441;-54
2022/06/21 03:56:39;;;;;;;2.80;1.48;;;16.70;99.90;;;;;;5079204;28;20019;-55
2022/06/21 03:59:18;;;;;;;5.78;2.05;;;16.70;99.90;;;;;;5090389;28;20024;-52
2022/06/21 04:01:50;;;;;;;3.33;1.27;;;16.70;99.90;;;;;;5077677;28;20032;-56
2022/06/21 04:04:31;;;;;;;5.35;1.92;;;16.70;99.90;;;;;;5071089;28;20024;-54
2022/06/21 04:07:15;;;;;;;1.60;1.50;;;16.60;99.90;;;;;;5071513;28;20111;-55
2022/06/21 04:09:51;;;;;;;2.38;1.55;;;16.70;99.90;;;;;;5071259;28;20024;-53
2022/06/21 04:12:22;;;;;;;5.35;1.73;;;16.70;99.90;;;;;;5083166;28;20085;-55
2022/06/21 04:15:02;;;;;;;2.22;1.50;;;16.80;99.90;;;;;;5089515;28;20024;-56
2022/06/21 04:17:39;;;;;;;3.13;1.63;;;16.80;99.90;;;;;;5070787;28;20028;-53
2022/06/21 04:20:29;;;;;;;2.58;1.83;;;16.90;99.90;;;;;;5077385;28;20026;-56
2022/06/21 04:23:00;;;;;;;3.13;2.10;;;16.80;99.90;;;;;;5091174;28;20024;-53
2022/06/21 04:25:37;;;;;;;7.90;1.88;;;16.80;99.90;;;;;;5080873;28;20033;-57
2022/06/21 04:28:10;;;;;;;2.13;1.80;;;16.80;99.90;;;;;;5072164;28;20111;-52
2022/06/21 04:30:43;;;;;;;9.02;1.83;;;16.90;99.90;;;;;;5070857;28;20472;-55
2022/06/21 04:33:29;;;;;;;1.88;1.38;;;16.90;99.90;;;;;;5070145;28;20028;-54
2022/06/21 04:36:08;;;;;;;2.42;1.42;;;16.90;99.90;;;;;;5070929;28;20476;-55
2022/06/21 04:38:47;;;;;;;5.90;1.42;;;17.00;99.90;;;;;;5090526;28;20436;-55
2022/06/21 04:41:21;;;;;;;1.45;1.35;;;17.00;99.90;;;;;;5090523;28;20036;-57
2022/06/21 04:44:00;;;;;;;3.22;1.50;;;16.90;99.90;;;;;;5090582;28;20360;-54
2022/06/21 04:46:50;;;;;;;1.33;1.13;;;16.90;99.90;;;;;;5082296;28;20062;-55
2022/06/21 04:49:45;;;;;;;3.50;1.67;;;16.90;99.90;;;;;;5070881;28;20400;-54
2022/06/21 04:52:19;;;;;;;5.18;1.40;;;16.90;99.90;;;;;;5068739;28;20062;-55
2022/06/21 04:54:45;;;;;;;2.75;1.92;;;17.10;99.90;;;;;;5071494;28;20025;-55
2022/06/21 04:57:15;;;;;;;4.25;1.27;;;17.10;99.90;;;;;;5069863;28;20112;-53
2022/06/21 04:59:54;;;;;;;4.68;1.65;;;17.00;99.90;;;;;;5081199;28;20123;-55
2022/06/21 05:02:21;;;;;;;4.55;1.30;;;17.10;99.90;;;;;;5073313;28;20021;-51
2022/06/21 05:04:52;;;;;;;3.08;1.50;;;17.10;99.90;;;;;;5070464;28;20029;-53
2022/06/21 05:07:22;;;;;;;1.40;1.30;;;17.10;99.90;;;;;;5068865;28;20511;-53
2022/06/21 05:09:50;;;;;;;4.68;1.50;;;17.10;99.90;;;;;;5070589;28;20116;-54
2022/06/21 05:12:35;;;;;;;2.90;1.67;;;17.20;99.90;;;;;;5068541;28;20401;-53
2022/06/21 05:15:31;;;;;;;1.75;1.38;;;17.20;99.90;;;;;;5069973;28;20472;-55
2022/06/21 05:18:13;;;;;;;9.55;1.80;;;17.00;99.90;;;;;;5069774;28;20060;-54
2022/06/21 05:20:46;;;;;;;3.97;1.67;;;17.10;99.90;;;;;;5068237;28;20048;-54
2022/06/21 05:23:12;;;;;;;;;;;17.20;99.90;;;;;;5069090;28;20116;-53
2022/06/21 05:25:43;;;;;;;5.38;1.45;;;17.10;99.90;;;;;;5068525;28;20501;-52
2022/06/21 05:28:25;;;;;;;4.55;1.48;;;17.20;99.90;;;;;;5068132;28;20020;-54
2022/06/21 05:31:06;;;;;;;2.35;1.25;;;17.30;99.90;;;;;;5067483;28;20491;-54
2022/06/21 05:33:43;;;;;;;4.53;1.60;;;17.30;99.90;;;;;;5072227;28;20032;-55
2022/06/21 05:36:20;;;;;;;10.30;1.85;;;17.20;99.90;;;;;;5074601;28;20032;-55
2022/06/21 05:38:55;;;;;;;3.63;1.33;;;17.40;99.90;;;;;;5074330;28;20017;-54
2022/06/21 05:41:30;;;;;;;4.72;1.30;;;17.50;99.90;;;;;;5073238;28;20090;-55
2022/06/21 05:44:34;;;;;;;2.55;1.25;;;17.70;99.90;;;;;;5075196;28;20021;-51
2022/06/21 05:47:37;;;;;;;6.35;1.88;;;17.70;99.90;;;;;;5075157;28;20016;-55
2022/06/21 05:50:07;;;;;;;2.78;1.23;;;17.70;99.90;;;;;;5077772;28;20036;-51
2022/06/21 05:52:37;;;;;;;2.53;1.85;;;18.10;99.90;;;;;;5095255;28;20028;-53
2022/06/21 05:55:15;;;;;;;4.72;1.40;;;18.20;99.90;;;;;;5095096;28;20035;-51
2022/06/21 05:57:54;;;;;;;3.28;1.50;;;18.10;99.90;;;;;;5094968;28;20013;-54
2022/06/21 06:00:41;;;;;;;3.30;1.30;;;18.10;99.90;;;;;;5094988;28;20028;-54
2022/06/21 06:03:19;;;;;;;2.97;1.52;;;17.90;99.90;;;;;;5094835;28;20114;-54
2022/06/21 06:05:46;;;;;;;2.60;1.60;;;18.10;99.90;;;;;;5091791;28;20433;-53
2022/06/21 06:08:46;;;;;;;2.28;1.50;;;17.90;99.90;;;;;;5093574;28;20024;-53
2022/06/21 06:11:25;;;;;;;4.95;1.52;;;17.90;99.90;;;;;;5070981;28;20122;-53
2022/06/21 06:13:53;;;;;;;8.13;2.08;;;18.20;99.90;;;;;;5094823;28;20456;-52
2022/06/21 06:16:36;;;;;;;5.60;1.65;;;18.30;99.80;;;;;;5093846;28;20074;-53
2022/06/21 06:19:12;;;;;;;2.28;1.63;;;18.40;99.50;;;;;;5074652;28;20391;-51
2022/06/21 06:21:50;;;;;;;3.03;1.35;;;18.40;99.90;;;;;;5073150;28;20025;-53
2022/06/21 06:24:26;;;;;;;5.55;1.52;;;19.00;98.00;;;;;;5074202;28;20021;-54
2022/06/21 06:26:56;;;;;;;3.17;1.55;;;19.20;97.60;;;;;;5074176;28;20025;-53
2022/06/21 06:29:34;;;;;;;2.10;1.27;;;19.20;98.40;;;;;;5074501;28;20029;-55
2022/06/21 06:32:29;;;;;;;2.63;1.48;;;19.30;97.00;;;;;;5082383;28;20032;-55
2022/06/21 06:34:56;;;;;;;4.03;1.70;;;19.30;97.00;;;;;;5094501;28;20031;-51
2022/06/21 06:37:42;;;;;;;5.72;1.63;;;19.30;97.30;;;;;;5094273;28;20031;-54
2022/06/21 06:40:29;;;;;;;2.92;1.27;;;18.60;96.80;;;;;;5094198;28;20115;-56
2022/06/21 06:43:02;;;;;;;5.65;1.38;;;18.60;96.90;;;;;;5094214;28;20479;-54
2022/06/21 06:45:33;;;;;;;2.78;0.90;;;18.70;95.70;;;;;;5094421;28;20045;-53
2022/06/21 06:48:03;;;;;;;1.35;1.00;;;19.10;93.30;;;;;;5094040;28;20033;-56
2022/06/21 06:50:43;;;;;;;2.22;1.58;;;19.40;94.30;;;;;;5094118;28;20020;-55
2022/06/21 06:53:21;;;;;;;1.55;0.85;;;19.50;94.90;;;;;;5094071;28;20107;-54
2022/06/21 06:55:51;;;;;;;8.38;2.03;;;19.50;92.50;;;;;;5094030;28;20054;-54
2022/06/21 06:58:28;;;;;;;1.52;1.10;;;19.60;95.80;;;;;;5093866;28;20047;-55
2022/06/21 07:01:05;;;;;;;2.10;1.20;;;19.60;92.70;;;;;;5090484;28;20409;-54
2022/06/21 07:03:42;;;;;;;13.38;1.55;;;19.80;92.50;;;;;;5092508;28;20039;-55
2022/06/21 07:06:32;;;;;;;3.58;1.23;;;19.70;91.20;;;;;;5093875;28;20027;-53
2022/06/21 07:09:16;;;;;;;2.08;0.80;;;19.70;91.50;;;;;;5093492;28;20031;-53
2022/06/21 07:11:42;;;;;;;2.45;1.30;;;20.30;91.00;;;;;;5091903;28;20137;-52
2022/06/21 07:14:21;;;;;;;9.05;1.20;;;20.40;91.00;;;;;;5092111;28;20037;-53
2022/06/21 07:16:54;;;;;;;1.95;1.00;;;20.70;90.10;;;;;;5092502;28;20399;-51
2022/06/21 07:19:20;;;;;;;2.00;0.90;;;20.70;89.80;;;;;;5092658;28;20081;-50
2022/06/21 07:21:45;;;;;;;1.75;1.15;;;20.50;90.00;;;;;;5091682;28;20467;-52
2022/06/21 07:24:16;;;;;;;1.35;1.25;;;20.30;90.00;;;;;;5088035;28;20304;-51
2022/06/21 07:27:01;;;;;;;3.72;1.30;;;20.20;89.60;;;;;;5073389;28;20024;-50
2022/06/21 07:29:26;;;;;;;2.35;1.00;;;20.20;90.70;;;;;;5089904;28;20127;-50
2022/06/21 07:32:09;;;;;;;3.42;1.10;;;20.60;89.60;;;;;;5091286;28;20115;-53
2022/06/21 07:34:51;;;;;;;2.25;1.27;;;21.00;88.70;;;;;;5092317;28;20281;-52
2022/06/21 07:37:18;;;;;;;1.90;1.20;;;21.10;90.80;;;;;;5091952;28;20024;-51
2022/06/21 07:39:53;;;;;;;2.53;1.52;;;20.90;85.60;;;;;;5074047;28;20041;-53
2022/06/21 07:42:24;;;;;;;6.28;3.88;;;20.90;86.80;;;;;;5071683;28;20052;-54
2022/06/21 07:44:54;;;;;;;1.77;1.00;;;21.10;85.90;;;;;;5071809;28;20013;-51
2022/06/21 07:47:29;;;;;;;6.45;1.20;;;21.70;83.10;;;;;;5071595;28;20028;-54
2022/06/21 07:50:01;;;;;;;2.13;1.60;;;21.50;83.50;;;;;;5071649;28;20035;-52
2022/06/21 07:52:35;;;;;;;2.85;1.35;;;21.00;82.90;;;;;;5071368;28;20052;-52
2022/06/21 07:55:06;;;;;;;5.05;3.03;;;20.50;84.80;;;;;;5076780;28;20024;-51
2022/06/21 07:57:39;;;;;;;2.40;1.58;;;20.40;84.50;;;;;;5090915;28;20025;-49
2022/06/21 08:00:18;;;;;;;3.42;1.52;;;20.40;84.80;;;;;;5072437;28;20458;-52
2022/06/21 08:09:08;;;;;;;2.25;1.10;;;21.10;85.70;;;;;;5071344;28;20032;-54
2022/06/21 08:11:38;;;;;;;9.45;1.85;;;20.80;84.00;;;;;;5070944;28;20399;-52
2022/06/21 08:14:04;;;;;;;2.85;1.30;;;20.80;87.70;;;;;;5071057;28;20503;-51
2022/06/21 08:16:46;;;;;;;2.08;1.52;;;20.80;87.40;;;;;;5071145;28;20122;-50
2022/06/21 08:19:17;;;;;;;630.72;388.88;;;20.90;85.40;;;;;;5070587;28;20032;-50
2022/06/21 08:22:03;;;;;;;9.30;4.82;;;21.20;86.20;;;;;;5070751;28;20077;-52
2022/06/21 08:24:50;;;;;;;4.65;2.97;;;21.20;86.30;;;;;;5069222;28;20039;-53
2022/06/21 08:27:40;;;;;;;10.70;1.90;;;21.30;86.40;;;;;;5070523;28;20025;-51
2022/06/21 08:30:14;;;;;;;3.38;1.40;;;21.60;84.60;;;;;;5070451;28;20017;-50
2022/06/21 08:32:54;;;;;;;3.38;2.13;;;21.60;83.70;;;;;;5070852;28;20070;-51
2022/06/21 08:35:38;;;;;;;3.42;1.70;;;21.70;84.40;;;;;;5070715;28;20064;-52
2022/06/21 08:38:13;;;;;;;6.03;2.33;;;22.00;85.50;;;;;;5070773;28;20028;-51
2022/06/21 08:41:51;;;;;;;6.00;1.88;;;22.20;84.70;;;;;;5070597;28;20484;-54
2022/06/21 08:44:29;;;;;;;6.93;1.77;;;22.50;85.40;;;;;;5070582;28;20040;-55
2022/06/21 08:47:01;;;;;;;8.63;2.22;;;23.00;87.10;;;;;;5070736;28;20051;-52
2022/06/21 08:49:41;;;;;;;3.35;1.73;;;22.80;83.00;;;;;;5070511;28;20051;-53
2022/06/21 08:52:07;;;;;;;6.43;2.30;;;22.40;84.90;;;;;;5070380;28;20024;-51
2022/06/21 08:55:04;;;;;;;4.63;1.98;;;22.30;84.60;;;;;;5070757;28;20369;-53
2022/06/21 08:57:58;;;;;;;6.55;2.35;;;22.50;85.80;;;;;;5070177;28;20023;-52
2022/06/21 09:00:33;;;;;;;3.60;2.72;;;22.40;82.70;;;;;;5070467;28;20074;-54
2022/06/21 09:03:17;;;;;;;4.47;2.47;;;22.10;84.80;;;;;;5070466;28;20438;-53
2022/06/21 09:06:07;;;;;;;3.97;3.30;;;22.20;85.10;;;;;;5070517;28;20020;-54
2022/06/21 09:08:36;;;;;;;7.07;2.63;;;22.00;85.50;;;;;;5068997;28;20476;-52
2022/06/21 09:11:05;;;;;;;4.18;2.90;;;22.40;88.00;;;;;;5070498;28;20025;-53
2022/06/21 09:13:48;;;;;;;3.80;2.53;;;22.90;85.70;;;;;;5068957;28;20488;-52
2022/06/21 09:16:34;;;;;;;5.32;2.10;;;22.80;84.20;;;;;;5070266;28;20024;-53
2022/06/21 09:19:08;;;;;;;12.02;8.10;;;22.60;86.00;;;;;;5069112;28;20064;-54
2022/06/21 09:21:40;;;;;;;10.43;3.75;;;22.40;86.40;;;;;;5068864;28;20487;-52
2022/06/21 09:24:18;;;;;;;5.85;3.15;;;22.40;87.00;;;;;;5070142;28;20025;-54
2022/06/21 09:26:55;;;;;;;5.30;2.58;;;22.20;87.50;;;;;;5070606;28;20388;-50
2022/06/21 09:29:45;;;;;;;3.45;2.88;;;22.50;89.10;;;;;;5069890;28;20069;-51
2022/06/21 09:32:37;;;;;;;4.72;2.88;;;22.40;86.60;;;;;;5070710;28;20070;-54
2022/06/21 09:35:17;;;;;;;4.63;2.50;;;22.60;85.80;;;;;;5070413;28;20107;-53
2022/06/21 09:38:02;;;;;;;3.78;2.58;;;22.80;85.50;;;;;;5069896;28;20028;-51
2022/06/21 09:40:49;;;;;;;10.82;6.00;;;22.70;84.60;;;;;;5069997;28;20061;-48
2022/06/21 09:43:42;;;;;;;6.25;3.05;;;22.80;84.70;;;;;;5070492;28;20024;-55
2022/06/21 09:46:35;;;;;;;3.58;2.25;;;23.00;85.10;;;;;;5070350;28;20086;-51
2022/06/21 09:49:13;;;;;;;5.70;3.22;;;23.40;85.60;;;;;;5069503;28;20032;-54
2022/06/21 09:51:56;;;;;;;6.47;2.78;;;23.70;86.70;;;;;;5069877;28;20082;-53
2022/06/21 09:54:30;;;;;;;5.10;2.53;;;24.10;85.00;;;;;;5069706;28;20032;-52
2022/06/21 09:57:21;;;;;;;3.05;2.55;;;23.50;83.00;;;;;;5070083;28;20067;-51
2022/06/21 09:59:55;;;;;;;3.92;3.10;;;23.60;84.60;;;;;;5069928;28;20027;-51
2022/06/21 10:02:54;;;;;;;3.58;2.75;;;23.90;86.40;;;;;;5070141;28;20029;-51
2022/06/21 10:05:29;;;;;;;3.20;2.60;;;24.00;84.50;;;;;;5069631;28;20047;-51
2022/06/21 10:08:19;;;;;;;5.22;2.72;;;24.30;82.60;;;;;;5069874;28;20197;-54
2022/06/21 10:11:26;;;;;;;3.30;2.20;;;24.70;82.90;;;;;;5069799;28;20107;-53
2022/06/21 10:14:18;;;;;;;6.38;2.83;;;24.60;81.80;;;;;;5047178;28;20490;-52
2022/06/21 10:16:43;;;;;;;4.60;2.40;;;24.50;81.90;;;;;;5069006;28;20103;-54
2022/06/21 10:19:18;;;;;;;5.53;2.70;;;24.70;81.10;;;;;;5073258;28;20025;-52
2022/06/21 10:21:43;;;;;;;4.25;2.60;;;25.00;81.10;;;;;;5073356;28;20063;-51
2022/06/21 10:24:49;;;;;;;5.00;2.80;;;24.80;81.30;;;;;;5073311;28;20099;-52
2022/06/21 10:27:49;;;;;;;6.78;2.13;;;25.10;82.10;;;;;;5073131;28;20020;-53
2022/06/21 10:30:39;;;;;;;6.18;2.13;;;25.00;83.20;;;;;;5061644;28;20040;-53
2022/06/21 10:33:20;;;;;;;6.57;2.72;;;25.20;82.50;;;;;;5073059;28;20041;-53
2022/06/21 10:36:16;;;;;;;2.70;2.20;;;25.40;81.20;;;;;;5073246;28;20468;-51
2022/06/21 10:38:53;;;;;;;3.85;2.25;;;25.90;79.50;;;;;;5071752;28;20040;-51
2022/06/21 10:41:36;;;;;;;4.13;2.30;;;25.90;79.00;;;;;;5073129;28;20041;-52
2022/06/21 10:44:15;;;;;;;3.30;2.20;;;25.90;84.50;;;;;;5072422;28;20388;-55
2022/06/21 10:46:49;;;;;;;5.22;2.28;;;26.50;81.50;;;;;;5072817;28;20048;-54
2022/06/21 10:49:37;;;;;;;4.55;2.33;;;26.00;78.50;;;;;;5072643;28;20058;-53
2022/06/21 10:52:14;;;;;;;5.00;2.40;;;26.20;78.30;;;;;;5072905;28;20024;-52
2022/06/21 10:55:18;;;;;;;4.22;2.30;;;26.00;79.50;;;;;;5072850;28;20170;-54
2022/06/21 10:58:03;;;;;;;9.75;2.63;;;26.40;82.70;;;;;;5064403;28;20029;-50
2022/06/21 11:03:52;;;;;;;4.45;2.42;;;26.50;78.10;;;;;;5072680;28;20119;-55
2022/06/21 11:06:26;;;;;;;4.82;3.08;;;26.40;77.50;;;;;;5073393;28;20025;-56
2022/06/21 11:09:01;;;;;;;5.30;2.45;;;26.70;76.40;;;;;;5073628;28;20367;-53
2022/06/21 11:11:57;;;;;;;2.95;2.38;;;27.00;74.80;;;;;;5073572;28;20476;-55
2022/06/21 11:15:13;;;;;;;3.55;2.45;;;26.60;75.20;;;;;;5072898;28;20021;-54
2022/06/21 11:17:43;;;;;;;7.18;2.08;;;26.70;77.40;;;;;;5046298;28;20055;-55
2022/06/21 11:20:29;;;;;;;3.33;2.42;;;26.70;75.80;;;;;;5073019;28;20025;-55
2022/06/21 11:23:18;;;;;;;5.72;2.38;;;26.70;79.70;;;;;;5073055;28;20033;-57
2022/06/21 11:25:50;;;;;;;3.63;2.08;;;27.50;81.50;;;;;;5072781;28;20020;-51
2022/06/21 11:28:21;;;;;;;3.17;1.90;;;27.50;77.50;;;;;;5072334;28;20399;-55
2022/06/21 11:31:02;;;;;;;7.40;2.30;;;27.40;76.20;;;;;;5071795;28;20115;-54
2022/06/21 11:33:35;;;;;;;5.00;2.10;;;27.40;77.20;;;;;;5071664;28;20032;-56
2022/06/21 11:36:13;;;;;;;3.63;1.98;;;27.70;74.90;;;;;;5072604;28;20093;-51
2022/06/21 11:38:51;;;;;;;4.68;1.63;;;28.50;75.00;;;;;;5079884;28;20107;-52
2022/06/21 11:44:27;;;;;;;5.85;2.42;;;28.60;74.10;;;;;;5082120;28;20559;-54
2022/06/21 11:47:07;;;;;;;2.95;2.38;;;28.60;72.60;;;;;;5063515;28;20086;-53
2022/06/21 11:49:38;;;;;;;6.70;2.22;;;28.40;72.50;;;;;;5082068;28;20036;-53
2022/06/21 11:52:13;;;;;;;4.88;2.08;;;28.40;71.40;;;;;;5082266;28;20079;-55
2022/06/21 11:54:42;;;;;;;10.05;2.25;;;28.80;74.30;;;;;;5082450;28;20058;-55
2022/06/21 11:57:24;;;;;;;3.03;1.90;;;28.80;71.00;;;;;;5080122;28;20035;-55
2022/06/21 12:00:10;;;;;;;5.18;2.45;;;28.30;68.70;;;;;;5062688;28;20111;-54
2022/06/21 12:02:53;;;;;;;5.60;2.25;;;28.60;70.70;;;;;;5082086;28;20433;-56
2022/06/21 12:05:33;;;;;;;3.60;1.93;;;29.30;72.00;;;;;;5079732;28;20111;-55
2022/06/21 12:08:22;;;;;;;2.58;1.42;;;28.70;66.50;;;;;;5087778;28;20020;-56
2022/06/21 12:11:08;;;;;;;4.25;2.20;;;29.20;67.50;;;;;;5089231;28;20020;-54
2022/06/21 12:13:49;;;;;;;6.07;2.17;;;29.30;66.50;;;;;;5089374;28;20032;-54
2022/06/21 12:16:28;;;;;;;3.72;1.95;;;28.90;70.30;;;;;;5089234;28;20035;-55
2022/06/21 12:19:04;;;;;;;7.35;2.15;;;28.30;72.00;;;;;;5089306;28;20058;-54
2022/06/21 12:21:34;;;;;;;6.03;2.50;;;27.90;69.90;;;;;;5089120;28;20103;-53
2022/06/21 12:24:17;;;;;;;14.75;3.63;;;27.80;69.40;;;;;;5089227;28;20396;-50
2022/06/21 12:26:44;;;;;;;3.90;2.40;;;28.10;70.30;;;;;;5087716;28;20574;-55
2022/06/21 12:29:15;;;;;;;9.07;2.25;;;27.90;70.50;;;;;;5089021;28;20028;-55
2022/06/21 12:31:50;;;;;;;5.28;1.98;;;27.90;69.40;;;;;;5089172;28;20027;-55
2022/06/21 12:34:40;;;;;;;17.77;2.60;;;28.60;69.80;;;;;;5088786;28;20118;-55
2022/06/21 12:37:11;;;;;;;7.50;2.53;;;28.70;68.10;;;;;;5088648;28;20358;-56
2022/06/21 12:39:59;;;;;;;3.17;1.70;;;28.40;69.10;;;;;;5088811;28;20047;-56
2022/06/21 12:43:07;;;;;;;4.45;2.00;;;28.20;69.00;;;;;;5088717;28;20032;-53
2022/06/21 12:45:41;;;;;;;3.85;2.03;;;28.10;70.50;;;;;;5045814;28;20033;-55
2022/06/21 12:48:15;;;;;;;3.20;2.25;;;29.30;68.60;;;;;;5081385;28;20032;-55
2022/06/21 12:51:04;;;;;;;10.00;2.25;;;30.40;65.40;;;;;;5088797;28;20584;-55
2022/06/21 12:53:47;;;;;;;3.03;2.17;;;30.40;64.80;;;;;;5088843;28;20024;-57
2022/06/21 12:56:47;;;;;;;11.07;2.22;;;30.90;69.70;;;;;;5088501;28;20032;-57
2022/06/21 12:59:33;;;;;;;3.83;2.25;;;31.90;64.40;;;;;;5088416;28;20020;-57
2022/06/21 13:02:11;;;;;;;11.73;2.08;;;32.30;63.60;;;;;;5088344;28;20028;-57
2022/06/21 13:04:48;;;;;;;8.35;2.55;;;32.10;62.60;;;;;;5088614;28;20130;-57
2022/06/21 13:07:16;;;;;;;2.90;1.63;;;32.30;61.80;;;;;;5088571;28;20113;-53
2022/06/21 13:10:05;;;;;;;2.00;1.50;;;32.50;63.10;;;;;;5088547;28;20042;-55
2022/06/21 13:12:46;;;;;;;2.53;1.67;;;32.70;60.40;;;;;;5088320;28;20036;-56
2022/06/21 13:15:30;;;;;;;5.43;1.80;;;33.60;59.90;;;;;;5088183;28;20032;-56
2022/06/21 13:18:01;;;;;;;4.20;1.95;;;33.60;57.60;;;;;;5088340;28;20703;-55
2022/06/21 13:20:48;;;;;;;5.20;4.60;;;33.10;57.90;;;;;;5088323;28;20499;-56
2022/06/21 13:23:42;;;;;;;3.97;2.00;;;33.20;57.90;;;;;;5088273;28;20031;-56
2022/06/21 13:26:37;;;;;;;7.20;2.30;;;33.90;57.80;;;;;;5088210;28;20024;-55
2022/06/21 13:29:21;;;;;;;5.07;2.13;;;34.00;54.30;;;;;;5088439;28;20107;-56
2022/06/21 13:31:56;;;;;;;6.75;1.92;;;34.20;57.80;;;;;;5088308;28;20059;-55
2022/06/21 13:34:48;;;;;;;5.05;1.52;;;34.50;57.90;;;;;;5088068;28;20617;-56
2022/06/21 13:37:23;;;;;;;5.47;2.10;;;34.80;54.60;;;;;;5088260;28;20569;-56
2022/06/21 13:40:07;;;;;;;9.13;2.08;;;34.40;54.30;;;;;;5088058;28;20044;-55
2022/06/21 13:42:50;;;;;;;4.18;1.65;;;33.70;55.20;;;;;;5088246;28;20417;-55
2022/06/21 13:45:39;;;;;;;6.18;1.83;;;34.20;56.80;;;;;;5086754;28;20020;-56
2022/06/21 13:48:17;;;;;;;11.68;2.60;;;34.20;55.20;;;;;;5088126;28;20024;-56
2022/06/21 13:50:49;;;;;;;4.72;1.70;;;33.90;53.90;;;;;;5087780;28;20020;-56
2022/06/21 13:53:20;;;;;;;7.13;1.70;;;34.40;53.80;;;;;;5090528;28;20031;-55
2022/06/21 13:56:01;;;;;;;2.58;1.30;;;35.20;54.00;;;;;;5091414;28;20059;-55